sensor_id;sensor_type;location;lat;lon;timestamp;temperature;humidity
6824;DHT22;58633;49.470;11.004;2023-05-16T00:00:15;14.20;65.40
6824;DHT22;58633;49.470;11.004;2023-05-16T00:02:41;14.80;66.10
6824;DHT22;58633;49.470;11.004;2023-05-16T00:05:07;14.00;65.20
6824;DHT22;58633;49.470;11.004;2023-05-16T00:07:34;14.20;65.60
6824;DHT22;58633;49.470;11.004;2023-05-16T00:10:00;14.40;65.60
6824;DHT22;58633;49.470;11.004;2023-05-16T00:14:52;14.40;65.80
6824;DHT22;58633;49.470;11.004;2023-05-16T00:17:18;14.10;65.60
6824;DHT22;58633;49.470;11.004;2023-05-16T00:19:45;14.10;66.00
6824;DHT22;58633;49.470;11.004;2023-05-16T00:22:16;14.00;66.30
6824;DHT22;58633;49.470;11.004;2023-05-16T00:24:41;14.10;66.70
6824;DHT22;58633;49.470;11.004;2023-05-16T00:27:07;13.80;66.10
6824;DHT22;58633;49.470;11.004;2023-05-16T00:29:36;13.50;65.70
6824;DHT22;58633;49.470;11.004;2023-05-16T00:32:01;13.90;66.20
6824;DHT22;58633;49.470;11.004;2023-05-16T00:34:27;14.00;66.20
6824;DHT22;58633;49.470;11.004;2023-05-16T00:36:53;14.10;66.20
6824;DHT22;58633;49.470;11.004;2023-05-16T00:39:18;13.90;66.30
6824;DHT22;58633;49.470;11.004;2023-05-16T00:41:45;13.80;66.40
6824;DHT22;58633;49.470;11.004;2023-05-16T00:44:10;13.80;66.10
6824;DHT22;58633;49.470;11.004;2023-05-16T00:46:36;14.10;66.50
6824;DHT22;58633;49.470;11.004;2023-05-16T00:49:02;14.00;66.60
6824;DHT22;58633;49.470;11.004;2023-05-16T00:51:28;14.20;66.80
6824;DHT22;58633;49.470;11.004;2023-05-16T00:53:54;14.20;66.50
6824;DHT22;58633;49.470;11.004;2023-05-16T00:56:21;14.10;66.60
6824;DHT22;58633;49.470;11.004;2023-05-16T00:58:47;13.90;66.60
6824;DHT22;58633;49.470;11.004;2023-05-16T01:01:12;14.40;67.10
6824;DHT22;58633;49.470;11.004;2023-05-16T01:03:38;13.90;66.90
6824;DHT22;58633;49.470;11.004;2023-05-16T01:06:04;14.30;67.20
6824;DHT22;58633;49.470;11.004;2023-05-16T01:19:46;13.70;67.10
6824;DHT22;58633;49.470;11.004;2023-05-16T01:22:15;13.80;67.20
6824;DHT22;58633;49.470;11.004;2023-05-16T01:25:30;13.90;67.40
6824;DHT22;58633;49.470;11.004;2023-05-16T01:27:51;14.50;68.30
6824;DHT22;58633;49.470;11.004;2023-05-16T01:30:18;13.30;67.50
6824;DHT22;58633;49.470;11.004;2023-05-16T01:32:44;13.20;67.40
6824;DHT22;58633;49.470;11.004;2023-05-16T01:35:13;13.50;67.80
6824;DHT22;58633;49.470;11.004;2023-05-16T01:37:51;13.80;67.90
6824;DHT22;58633;49.470;11.004;2023-05-16T01:40:43;14.30;68.50
6824;DHT22;58633;49.470;11.004;2023-05-16T01:43:13;13.10;67.50
6824;DHT22;58633;49.470;11.004;2023-05-16T01:45:46;13.90;68.20
6824;DHT22;58633;49.470;11.004;2023-05-16T01:48:51;13.90;68.00
6824;DHT22;58633;49.470;11.004;2023-05-16T01:51:20;13.70;67.60
6824;DHT22;58633;49.470;11.004;2023-05-16T01:53:48;13.70;67.70
6824;DHT22;58633;49.470;11.004;2023-05-16T01:56:15;13.90;68.00
6824;DHT22;58633;49.470;11.004;2023-05-16T01:58:41;13.60;67.80
6824;DHT22;58633;49.470;11.004;2023-05-16T02:01:07;12.90;67.10
6824;DHT22;58633;49.470;11.004;2023-05-16T02:03:33;13.70;67.80
6824;DHT22;58633;49.470;11.004;2023-05-16T02:05:59;13.70;68.00
6824;DHT22;58633;49.470;11.004;2023-05-16T02:08:27;13.70;68.10
6824;DHT22;58633;49.470;11.004;2023-05-16T02:10:53;12.90;67.20
6824;DHT22;58633;49.470;11.004;2023-05-16T02:15:44;13.60;68.20
6824;DHT22;58633;49.470;11.004;2023-05-16T02:18:10;13.90;68.80
6824;DHT22;58633;49.470;11.004;2023-05-16T02:20:36;13.80;68.70
6824;DHT22;58633;49.470;11.004;2023-05-16T02:23:02;13.00;68.20
6824;DHT22;58633;49.470;11.004;2023-05-16T02:25:28;13.50;68.90
6824;DHT22;58633;49.470;11.004;2023-05-16T02:27:53;13.00;68.50
6824;DHT22;58633;49.470;11.004;2023-05-16T02:30:19;13.30;69.00
6824;DHT22;58633;49.470;11.004;2023-05-16T02:35:11;13.30;69.00
6824;DHT22;58633;49.470;11.004;2023-05-16T02:37:36;14.20;69.70
6824;DHT22;58633;49.470;11.004;2023-05-16T02:40:03;13.70;69.30
6824;DHT22;58633;49.470;11.004;2023-05-16T02:42:32;13.70;69.10
6824;DHT22;58633;49.470;11.004;2023-05-16T02:44:57;13.40;69.00
6824;DHT22;58633;49.470;11.004;2023-05-16T02:47:23;13.60;69.10
6824;DHT22;58633;49.470;11.004;2023-05-16T02:49:49;13.30;69.00
6824;DHT22;58633;49.470;11.004;2023-05-16T02:52:17;13.70;69.30
6824;DHT22;58633;49.470;11.004;2023-05-16T02:54:42;13.30;68.90
6824;DHT22;58633;49.470;11.004;2023-05-16T02:57:08;13.70;69.40
6824;DHT22;58633;49.470;11.004;2023-05-16T02:59:34;13.60;69.20
6824;DHT22;58633;49.470;11.004;2023-05-16T03:02:00;13.90;69.40
6824;DHT22;58633;49.470;11.004;2023-05-16T03:04:26;13.20;68.80
6824;DHT22;58633;49.470;11.004;2023-05-16T03:06:51;13.70;69.30
6824;DHT22;58633;49.470;11.004;2023-05-16T03:09:17;13.30;69.20
6824;DHT22;58633;49.470;11.004;2023-05-16T03:11:44;13.70;70.20
6824;DHT22;58633;49.470;11.004;2023-05-16T03:14:09;13.40;69.90
6824;DHT22;58633;49.470;11.004;2023-05-16T03:16:35;13.70;70.30
6824;DHT22;58633;49.470;11.004;2023-05-16T03:19:05;13.10;69.70
6824;DHT22;58633;49.470;11.004;2023-05-16T03:21:31;13.30;70.10
6824;DHT22;58633;49.470;11.004;2023-05-16T03:23:57;13.10;69.90
6824;DHT22;58633;49.470;11.004;2023-05-16T03:26:23;13.10;69.90
6824;DHT22;58633;49.470;11.004;2023-05-16T03:28:49;13.50;70.10
6824;DHT22;58633;49.470;11.004;2023-05-16T03:31:15;13.30;69.70
6824;DHT22;58633;49.470;11.004;2023-05-16T03:33:41;13.30;69.60
6824;DHT22;58633;49.470;11.004;2023-05-16T03:36:07;13.80;70.10
6824;DHT22;58633;49.470;11.004;2023-05-16T03:38:33;13.60;69.90
6824;DHT22;58633;49.470;11.004;2023-05-16T03:40:58;12.80;69.00
6824;DHT22;58633;49.470;11.004;2023-05-16T03:43:24;13.50;70.30
6824;DHT22;58633;49.470;11.004;2023-05-16T03:45:49;13.30;70.30
6824;DHT22;58633;49.470;11.004;2023-05-16T03:48:15;13.10;69.60
6824;DHT22;58633;49.470;11.004;2023-05-16T03:50:40;14.00;70.60
6824;DHT22;58633;49.470;11.004;2023-05-16T03:53:06;13.70;70.20
6824;DHT22;58633;49.470;11.004;2023-05-16T03:55:33;13.40;70.00
6824;DHT22;58633;49.470;11.004;2023-05-16T03:57:59;13.40;70.20
6824;DHT22;58633;49.470;11.004;2023-05-16T04:00:24;13.60;70.20
6824;DHT22;58633;49.470;11.004;2023-05-16T04:05:17;13.50;69.90
6824;DHT22;58633;49.470;11.004;2023-05-16T04:07:42;13.40;69.70
6824;DHT22;58633;49.470;11.004;2023-05-16T04:10:08;13.30;69.90
6824;DHT22;58633;49.470;11.004;2023-05-16T04:12:34;14.30;71.10
6824;DHT22;58633;49.470;11.004;2023-05-16T04:15:01;13.40;70.30
6824;DHT22;58633;49.470;11.004;2023-05-16T04:17:26;13.40;70.30
6824;DHT22;58633;49.470;11.004;2023-05-16T04:22:20;13.70;70.60
6824;DHT22;58633;49.470;11.004;2023-05-16T04:27:12;13.90;71.10
6824;DHT22;58633;49.470;11.004;2023-05-16T04:29:37;13.50;70.70
6824;DHT22;58633;49.470;11.004;2023-05-16T04:32:03;13.20;70.40
6824;DHT22;58633;49.470;11.004;2023-05-16T04:34:28;13.60;70.80
6824;DHT22;58633;49.470;11.004;2023-05-16T04:36:55;13.70;70.80
6824;DHT22;58633;49.470;11.004;2023-05-16T04:39:20;13.40;70.70
6824;DHT22;58633;49.470;11.004;2023-05-16T04:41:46;13.40;70.80
6824;DHT22;58633;49.470;11.004;2023-05-16T04:44:11;13.90;71.30
6824;DHT22;58633;49.470;11.004;2023-05-16T04:46:37;12.90;70.20
6824;DHT22;58633;49.470;11.004;2023-05-16T04:49:02;13.50;70.70
6824;DHT22;58633;49.470;11.004;2023-05-16T04:51:28;13.60;70.80
6824;DHT22;58633;49.470;11.004;2023-05-16T04:53:54;13.60;70.90
6824;DHT22;58633;49.470;11.004;2023-05-16T04:58:46;13.90;71.10
6824;DHT22;58633;49.470;11.004;2023-05-16T05:01:12;13.50;70.80
6824;DHT22;58633;49.470;11.004;2023-05-16T05:03:37;13.90;71.30
6824;DHT22;58633;49.470;11.004;2023-05-16T05:06:03;13.80;71.30
6824;DHT22;58633;49.470;11.004;2023-05-16T05:08:29;13.50;70.90
6824;DHT22;58633;49.470;11.004;2023-05-16T05:10:55;13.60;71.00
6824;DHT22;58633;49.470;11.004;2023-05-16T05:15:47;13.10;70.60
6824;DHT22;58633;49.470;11.004;2023-05-16T05:18:14;13.80;71.30
6824;DHT22;58633;49.470;11.004;2023-05-16T05:20:40;14.00;71.50
6824;DHT22;58633;49.470;11.004;2023-05-16T05:25:34;13.70;71.20
6824;DHT22;58633;49.470;11.004;2023-05-16T05:28:00;13.80;71.40
6824;DHT22;58633;49.470;11.004;2023-05-16T05:30:25;13.90;71.50
6824;DHT22;58633;49.470;11.004;2023-05-16T05:32:51;13.70;72.40
6824;DHT22;58633;49.470;11.004;2023-05-16T05:35:17;13.60;71.30
6824;DHT22;58633;49.470;11.004;2023-05-16T05:40:09;14.20;71.80
6824;DHT22;58633;49.470;11.004;2023-05-16T05:42:34;13.40;70.80
6824;DHT22;58633;49.470;11.004;2023-05-16T05:45:00;13.70;71.10
6824;DHT22;58633;49.470;11.004;2023-05-16T05:47:25;13.80;71.40
6824;DHT22;58633;49.470;11.004;2023-05-16T05:49:51;13.90;71.50
6824;DHT22;58633;49.470;11.004;2023-05-16T05:54:42;14.10;71.50
6824;DHT22;58633;49.470;11.004;2023-05-16T05:57:08;14.20;71.50
6824;DHT22;58633;49.470;11.004;2023-05-16T05:59:33;14.30;71.10
6824;DHT22;58633;49.470;11.004;2023-05-16T06:01:59;14.60;70.70
6824;DHT22;58633;49.470;11.004;2023-05-16T06:04:24;14.30;70.20
6824;DHT22;58633;49.470;11.004;2023-05-16T06:09:16;13.70;69.90
6824;DHT22;58633;49.470;11.004;2023-05-16T06:11:42;14.40;70.70
6824;DHT22;58633;49.470;11.004;2023-05-16T06:14:10;13.70;70.00
6824;DHT22;58633;49.470;11.004;2023-05-16T06:16:35;14.30;70.60
6824;DHT22;58633;49.470;11.004;2023-05-16T06:19:01;14.20;70.50
6824;DHT22;58633;49.470;11.004;2023-05-16T06:21:26;14.40;71.00
6824;DHT22;58633;49.470;11.004;2023-05-16T06:23:52;14.20;70.50
6824;DHT22;58633;49.470;11.004;2023-05-16T06:26:17;14.40;70.40
6824;DHT22;58633;49.470;11.004;2023-05-16T06:28:43;14.50;70.50
6824;DHT22;58633;49.470;11.004;2023-05-16T06:33:35;14.50;70.40
6824;DHT22;58633;49.470;11.004;2023-05-16T06:36:00;14.70;70.70
6824;DHT22;58633;49.470;11.004;2023-05-16T06:38:26;14.90;70.70
6824;DHT22;58633;49.470;11.004;2023-05-16T06:40:51;14.50;70.20
6824;DHT22;58633;49.470;11.004;2023-05-16T06:43:17;14.60;70.10
6824;DHT22;58633;49.470;11.004;2023-05-16T06:45:43;14.60;69.80
6824;DHT22;58633;49.470;11.004;2023-05-16T06:48:12;15.10;70.20
6824;DHT22;58633;49.470;11.004;2023-05-16T06:50:37;14.70;69.80
6824;DHT22;58633;49.470;11.004;2023-05-16T06:53:03;14.70;69.60
6824;DHT22;58633;49.470;11.004;2023-05-16T06:55:30;14.50;69.40
6824;DHT22;58633;49.470;11.004;2023-05-16T06:57:56;14.90;69.50
6824;DHT22;58633;49.470;11.004;2023-05-16T07:00:22;15.10;69.30
6824;DHT22;58633;49.470;11.004;2023-05-16T07:05:13;15.30;69.00
6824;DHT22;58633;49.470;11.004;2023-05-16T07:10:05;15.50;68.50
6824;DHT22;58633;49.470;11.004;2023-05-16T07:12:30;15.30;68.10
6824;DHT22;58633;49.470;11.004;2023-05-16T07:14:56;15.60;68.10
6824;DHT22;58633;49.470;11.004;2023-05-16T07:19:48;15.60;67.60
6824;DHT22;58633;49.470;11.004;2023-05-16T07:22:14;15.70;67.60
6824;DHT22;58633;49.470;11.004;2023-05-16T07:27:06;16.70;67.70
6824;DHT22;58633;49.470;11.004;2023-05-16T07:29:32;16.00;66.70
6824;DHT22;58633;49.470;11.004;2023-05-16T07:31:57;16.70;67.30
6824;DHT22;58633;49.470;11.004;2023-05-16T07:34:23;16.00;66.60
6824;DHT22;58633;49.470;11.004;2023-05-16T07:39:15;16.00;66.40
6824;DHT22;58633;49.470;11.004;2023-05-16T07:41:40;16.30;66.50
6824;DHT22;58633;49.470;11.004;2023-05-16T07:44:06;16.30;66.10
6824;DHT22;58633;49.470;11.004;2023-05-16T07:46:31;16.00;65.20
6824;DHT22;58633;49.470;11.004;2023-05-16T07:51:23;16.40;64.90
6824;DHT22;58633;49.470;11.004;2023-05-16T07:53:48;16.80;65.00
6824;DHT22;58633;49.470;11.004;2023-05-16T07:58:40;16.40;64.10
6824;DHT22;58633;49.470;11.004;2023-05-16T08:05:58;16.30;63.50
6824;DHT22;58633;49.470;11.004;2023-05-16T08:08:23;16.70;63.50
6824;DHT22;58633;49.470;11.004;2023-05-16T08:10:49;16.70;63.40
6824;DHT22;58633;49.470;11.004;2023-05-16T08:13:15;16.70;63.20
6824;DHT22;58633;49.470;11.004;2023-05-16T08:15:40;17.10;63.20
6824;DHT22;58633;49.470;11.004;2023-05-16T08:18:12;16.70;63.20
6824;DHT22;58633;49.470;11.004;2023-05-16T08:23:06;16.80;62.80
6824;DHT22;58633;49.470;11.004;2023-05-16T08:25:31;17.40;63.30
6824;DHT22;58633;49.470;11.004;2023-05-16T08:27:57;16.80;62.60
6824;DHT22;58633;49.470;11.004;2023-05-16T08:30:22;17.20;62.50
6824;DHT22;58633;49.470;11.004;2023-05-16T08:32:48;17.30;62.50
6824;DHT22;58633;49.470;11.004;2023-05-16T08:35:13;17.40;62.10
6824;DHT22;58633;49.470;11.004;2023-05-16T08:37:39;17.30;61.80
6824;DHT22;58633;49.470;11.004;2023-05-16T08:40:06;17.40;61.40
6824;DHT22;58633;49.470;11.004;2023-05-16T08:42:33;16.90;60.60
6824;DHT22;58633;49.470;11.004;2023-05-16T08:44:59;17.40;60.60
6824;DHT22;58633;49.470;11.004;2023-05-16T08:47:26;17.60;60.70
6824;DHT22;58633;49.470;11.004;2023-05-16T08:49:56;17.90;60.00
6824;DHT22;58633;49.470;11.004;2023-05-16T08:52:26;18.00;60.10
6824;DHT22;58633;49.470;11.004;2023-05-16T08:54:56;18.20;59.60
6824;DHT22;58633;49.470;11.004;2023-05-16T08:57:24;18.20;59.50
6824;DHT22;58633;49.470;11.004;2023-05-16T08:59:51;18.30;59.70
6824;DHT22;58633;49.470;11.004;2023-05-16T09:02:20;18.00;59.50
6824;DHT22;58633;49.470;11.004;2023-05-16T09:04:47;19.00;60.40
6824;DHT22;58633;49.470;11.004;2023-05-16T09:07:13;18.20;60.00
6824;DHT22;58633;49.470;11.004;2023-05-16T09:12:04;18.20;59.90
6824;DHT22;58633;49.470;11.004;2023-05-16T09:14:30;18.60;60.40
6824;DHT22;58633;49.470;11.004;2023-05-16T09:17:06;18.50;60.00
6824;DHT22;58633;49.470;11.004;2023-05-16T09:19:42;18.80;60.20
6824;DHT22;58633;49.470;11.004;2023-05-16T09:22:11;19.20;60.80
6824;DHT22;58633;49.470;11.004;2023-05-16T09:24:43;18.80;59.70
6824;DHT22;58633;49.470;11.004;2023-05-16T09:27:10;19.00;59.80
6824;DHT22;58633;49.470;11.004;2023-05-16T09:29:42;18.60;59.50
6824;DHT22;58633;49.470;11.004;2023-05-16T09:32:17;18.30;59.40
6824;DHT22;58633;49.470;11.004;2023-05-16T09:34:47;18.50;59.50
6824;DHT22;58633;49.470;11.004;2023-05-16T09:37:14;18.30;59.60
6824;DHT22;58633;49.470;11.004;2023-05-16T09:39:47;18.40;59.70
6824;DHT22;58633;49.470;11.004;2023-05-16T09:42:14;18.30;60.00
6824;DHT22;58633;49.470;11.004;2023-05-16T09:44:41;18.50;59.90
6824;DHT22;58633;49.470;11.004;2023-05-16T09:47:10;18.40;59.60
6824;DHT22;58633;49.470;11.004;2023-05-16T09:49:38;18.60;59.80
6824;DHT22;58633;49.470;11.004;2023-05-16T09:52:04;18.60;59.20
6824;DHT22;58633;49.470;11.004;2023-05-16T09:54:31;18.80;59.20
6824;DHT22;58633;49.470;11.004;2023-05-16T09:56:57;18.70;59.40
6824;DHT22;58633;49.470;11.004;2023-05-16T09:59:23;18.50;58.40
6824;DHT22;58633;49.470;11.004;2023-05-16T10:01:49;18.50;58.40
6824;DHT22;58633;49.470;11.004;2023-05-16T10:04:17;18.90;58.50
6824;DHT22;58633;49.470;11.004;2023-05-16T10:06:43;18.80;58.00
6824;DHT22;58633;49.470;11.004;2023-05-16T10:09:11;19.00;58.20
6824;DHT22;58633;49.470;11.004;2023-05-16T10:11:39;18.90;58.50
6824;DHT22;58633;49.470;11.004;2023-05-16T10:14:06;19.50;58.30
6824;DHT22;58633;49.470;11.004;2023-05-16T10:16:34;19.30;58.40
6824;DHT22;58633;49.470;11.004;2023-05-16T10:19:02;19.40;58.30
6824;DHT22;58633;49.470;11.004;2023-05-16T10:21:28;19.40;58.20
6824;DHT22;58633;49.470;11.004;2023-05-16T10:23:57;19.30;57.00
6824;DHT22;58633;49.470;11.004;2023-05-16T10:28:50;19.40;56.50
6824;DHT22;58633;49.470;11.004;2023-05-16T10:33:42;19.90;56.70
6824;DHT22;58633;49.470;11.004;2023-05-16T10:36:09;20.50;56.90
6824;DHT22;58633;49.470;11.004;2023-05-16T10:38:36;20.20;56.10
6824;DHT22;58633;49.470;11.004;2023-05-16T10:41:02;20.20;55.60
6824;DHT22;58633;49.470;11.004;2023-05-16T10:43:30;20.20;56.00
6824;DHT22;58633;49.470;11.004;2023-05-16T10:46:08;20.20;55.00
6824;DHT22;58633;49.470;11.004;2023-05-16T10:48:38;20.60;55.60
6824;DHT22;58633;49.470;11.004;2023-05-16T10:53:52;21.10;54.60
6824;DHT22;58633;49.470;11.004;2023-05-16T10:56:25;21.10;54.80
6824;DHT22;58633;49.470;11.004;2023-05-16T10:58:52;21.20;54.40
6824;DHT22;58633;49.470;11.004;2023-05-16T11:01:34;21.60;54.60
6824;DHT22;58633;49.470;11.004;2023-05-16T11:04:06;21.30;53.90
6824;DHT22;58633;49.470;11.004;2023-05-16T11:11:45;21.30;52.70
6824;DHT22;58633;49.470;11.004;2023-05-16T11:14:28;21.80;52.70
6824;DHT22;58633;49.470;11.004;2023-05-16T11:17:05;21.30;52.10
6824;DHT22;58633;49.470;11.004;2023-05-16T11:19:45;21.40;52.40
6824;DHT22;58633;49.470;11.004;2023-05-16T11:24:54;21.40;52.30
6824;DHT22;58633;49.470;11.004;2023-05-16T11:32:33;21.50;51.70
6824;DHT22;58633;49.470;11.004;2023-05-16T11:34:59;21.20;51.20
6824;DHT22;58633;49.470;11.004;2023-05-16T11:37:24;21.50;51.10
6824;DHT22;58633;49.470;11.004;2023-05-16T11:39:50;21.80;51.20
6824;DHT22;58633;49.470;11.004;2023-05-16T11:42:16;21.40;50.80
6824;DHT22;58633;49.470;11.004;2023-05-16T11:47:08;21.20;50.80
6824;DHT22;58633;49.470;11.004;2023-05-16T11:52:00;21.10;51.40
6824;DHT22;58633;49.470;11.004;2023-05-16T11:54:26;20.20;50.90
6824;DHT22;58633;49.470;11.004;2023-05-16T11:56:51;20.40;51.40
6824;DHT22;58633;49.470;11.004;2023-05-16T11:59:18;20.30;51.80
6824;DHT22;58633;49.470;11.004;2023-05-16T12:04:14;20.30;51.80
6824;DHT22;58633;49.470;11.004;2023-05-16T12:06:41;20.20;51.50
6824;DHT22;58633;49.470;11.004;2023-05-16T12:09:14;20.20;51.40
6824;DHT22;58633;49.470;11.004;2023-05-16T12:11:42;20.10;51.30
6824;DHT22;58633;49.470;11.004;2023-05-16T12:14:10;20.40;51.30
6824;DHT22;58633;49.470;11.004;2023-05-16T12:16:37;20.70;51.40
6824;DHT22;58633;49.470;11.004;2023-05-16T12:19:04;21.50;51.00
6824;DHT22;58633;49.470;11.004;2023-05-16T12:21:31;23.00;51.10
6824;DHT22;58633;49.470;11.004;2023-05-16T12:23:57;22.80;48.70
6824;DHT22;58633;49.470;11.004;2023-05-16T12:26:30;21.70;48.70
6824;DHT22;58633;49.470;11.004;2023-05-16T12:31:26;21.00;49.60
6824;DHT22;58633;49.470;11.004;2023-05-16T12:33:55;22.10;50.00
6824;DHT22;58633;49.470;11.004;2023-05-16T12:36:21;22.20;49.40
6824;DHT22;58633;49.470;11.004;2023-05-16T12:38:47;22.80;49.20
6824;DHT22;58633;49.470;11.004;2023-05-16T12:41:22;23.00;49.60
6824;DHT22;58633;49.470;11.004;2023-05-16T12:43:48;23.50;47.10
6824;DHT22;58633;49.470;11.004;2023-05-16T12:46:15;23.10;48.10
6824;DHT22;58633;49.470;11.004;2023-05-16T12:51:12;21.90;48.80
6824;DHT22;58633;49.470;11.004;2023-05-16T12:53:46;21.60;49.10
6824;DHT22;58633;49.470;11.004;2023-05-16T12:56:12;21.60;49.20
6824;DHT22;58633;49.470;11.004;2023-05-16T12:58:40;21.70;49.40
6824;DHT22;58633;49.470;11.004;2023-05-16T13:01:06;21.50;49.70
6824;DHT22;58633;49.470;11.004;2023-05-16T13:08:28;21.20;49.10
6824;DHT22;58633;49.470;11.004;2023-05-16T13:10:53;21.70;49.40
6824;DHT22;58633;49.470;11.004;2023-05-16T13:13:19;21.60;49.50
6824;DHT22;58633;49.470;11.004;2023-05-16T13:18:12;21.40;48.50
6824;DHT22;58633;49.470;11.004;2023-05-16T13:23:04;23.00;48.30
6824;DHT22;58633;49.470;11.004;2023-05-16T13:25:30;22.90;47.60
6824;DHT22;58633;49.470;11.004;2023-05-16T13:27:56;23.00;46.80
6824;DHT22;58633;49.470;11.004;2023-05-16T13:30:21;22.60;46.40
6824;DHT22;58633;49.470;11.004;2023-05-16T13:32:47;22.80;46.90
6824;DHT22;58633;49.470;11.004;2023-05-16T13:37:39;23.80;46.40
6824;DHT22;58633;49.470;11.004;2023-05-16T13:40:06;23.80;45.80
6824;DHT22;58633;49.470;11.004;2023-05-16T13:42:35;23.40;45.50
6824;DHT22;58633;49.470;11.004;2023-05-16T13:45:01;23.00;45.70
6824;DHT22;58633;49.470;11.004;2023-05-16T13:47:27;22.90;46.00
6824;DHT22;58633;49.470;11.004;2023-05-16T13:49:53;22.40;46.60
6824;DHT22;58633;49.470;11.004;2023-05-16T13:52:18;22.50;47.00
6824;DHT22;58633;49.470;11.004;2023-05-16T13:54:44;22.20;47.20
6824;DHT22;58633;49.470;11.004;2023-05-16T13:57:09;22.20;46.40
6824;DHT22;58633;49.470;11.004;2023-05-16T13:59:35;22.40;46.40
6824;DHT22;58633;49.470;11.004;2023-05-16T14:04:27;22.80;45.70
6824;DHT22;58633;49.470;11.004;2023-05-16T14:06:52;23.30;45.40
6824;DHT22;58633;49.470;11.004;2023-05-16T14:11:45;23.40;44.70
6824;DHT22;58633;49.470;11.004;2023-05-16T14:14:11;23.10;44.80
6824;DHT22;58633;49.470;11.004;2023-05-16T14:16:36;23.50;45.10
6824;DHT22;58633;49.470;11.004;2023-05-16T14:19:02;23.00;44.80
6824;DHT22;58633;49.470;11.004;2023-05-16T14:21:27;22.90;45.00
6824;DHT22;58633;49.470;11.004;2023-05-16T14:26:19;22.50;45.50
6824;DHT22;58633;49.470;11.004;2023-05-16T14:28:49;22.40;44.90
6824;DHT22;58633;49.470;11.004;2023-05-16T14:31:15;22.70;45.20
6824;DHT22;58633;49.470;11.004;2023-05-16T14:33:41;22.20;45.20
6824;DHT22;58633;49.470;11.004;2023-05-16T14:36:08;22.30;44.90
6824;DHT22;58633;49.470;11.004;2023-05-16T14:38:33;22.30;44.70
6824;DHT22;58633;49.470;11.004;2023-05-16T14:45:51;22.00;45.30
6824;DHT22;58633;49.470;11.004;2023-05-16T14:48:17;21.40;45.00
6824;DHT22;58633;49.470;11.004;2023-05-16T14:50:42;21.30;45.10
6824;DHT22;58633;49.470;11.004;2023-05-16T14:53:08;21.50;45.40
6824;DHT22;58633;49.470;11.004;2023-05-16T14:55:33;21.10;45.40
6824;DHT22;58633;49.470;11.004;2023-05-16T15:00:25;20.70;45.60
6824;DHT22;58633;49.470;11.004;2023-05-16T15:02:51;20.70;46.00
6824;DHT22;58633;49.470;11.004;2023-05-16T15:05:17;20.40;46.10
6824;DHT22;58633;49.470;11.004;2023-05-16T15:07:43;20.20;46.40
6824;DHT22;58633;49.470;11.004;2023-05-16T15:15:01;19.70;47.30
6824;DHT22;58633;49.470;11.004;2023-05-16T15:17:27;19.30;47.20
6824;DHT22;58633;49.470;11.004;2023-05-16T15:19:52;19.50;47.70
6824;DHT22;58633;49.470;11.004;2023-05-16T15:22:19;19.40;47.80
6824;DHT22;58633;49.470;11.004;2023-05-16T15:27:11;19.30;48.00
6824;DHT22;58633;49.470;11.004;2023-05-16T15:32:03;19.00;48.00
6824;DHT22;58633;49.470;11.004;2023-05-16T15:34:30;18.90;48.20
6824;DHT22;58633;49.470;11.004;2023-05-16T15:36:57;18.80;48.30
6824;DHT22;58633;49.470;11.004;2023-05-16T15:39:22;18.80;48.40
6824;DHT22;58633;49.470;11.004;2023-05-16T15:41:50;18.60;48.60
6824;DHT22;58633;49.470;11.004;2023-05-16T15:44:15;18.60;48.60
6824;DHT22;58633;49.470;11.004;2023-05-16T15:46:41;18.70;48.90
6824;DHT22;58633;49.470;11.004;2023-05-16T15:54:00;18.50;49.10
6824;DHT22;58633;49.470;11.004;2023-05-16T15:58:54;18.30;49.40
6824;DHT22;58633;49.470;11.004;2023-05-16T16:03:46;18.10;49.40
6824;DHT22;58633;49.470;11.004;2023-05-16T16:06:11;18.40;49.80
6824;DHT22;58633;49.470;11.004;2023-05-16T16:08:37;18.10;49.70
6824;DHT22;58633;49.470;11.004;2023-05-16T16:11:03;17.90;49.30
6824;DHT22;58633;49.470;11.004;2023-05-16T16:15:55;18.10;49.70
6824;DHT22;58633;49.470;11.004;2023-05-16T16:23:13;17.70;49.90
6824;DHT22;58633;49.470;11.004;2023-05-16T16:25:39;17.50;49.80
6824;DHT22;58633;49.470;11.004;2023-05-16T16:30:31;17.40;49.80
6824;DHT22;58633;49.470;11.004;2023-05-16T16:32:56;17.50;50.40
6824;DHT22;58633;49.470;11.004;2023-05-16T16:35:22;17.20;49.70
6824;DHT22;58633;49.470;11.004;2023-05-16T16:37:52;17.40;50.00
6824;DHT22;58633;49.470;11.004;2023-05-16T16:45:11;17.10;50.00
6824;DHT22;58633;49.470;11.004;2023-05-16T16:50:05;17.20;50.30
6824;DHT22;58633;49.470;11.004;2023-05-16T16:52:31;17.00;50.20
6824;DHT22;58633;49.470;11.004;2023-05-16T16:54:56;17.40;50.60
6824;DHT22;58633;49.470;11.004;2023-05-16T16:57:22;16.90;50.00
6824;DHT22;58633;49.470;11.004;2023-05-16T17:02:13;16.60;49.50
6824;DHT22;58633;49.470;11.004;2023-05-16T17:11:58;16.80;49.80
6824;DHT22;58633;49.470;11.004;2023-05-16T17:16:54;16.70;49.50
6824;DHT22;58633;49.470;11.004;2023-05-16T17:19:20;16.30;49.20
6824;DHT22;58633;49.470;11.004;2023-05-16T17:21:46;17.00;50.20
6824;DHT22;58633;49.470;11.004;2023-05-16T17:24:12;16.50;49.40
6824;DHT22;58633;49.470;11.004;2023-05-16T17:31:30;16.90;49.70
6824;DHT22;58633;49.470;11.004;2023-05-16T17:36:22;16.60;49.70
6824;DHT22;58633;49.470;11.004;2023-05-16T17:41:14;16.70;49.90
6824;DHT22;58633;49.470;11.004;2023-05-16T17:43:39;16.50;49.40
6824;DHT22;58633;49.470;11.004;2023-05-16T17:48:31;16.50;49.60
6824;DHT22;58633;49.470;11.004;2023-05-16T17:50:57;16.00;49.30
6824;DHT22;58633;49.470;11.004;2023-05-16T17:58:16;16.20;49.70
6824;DHT22;58633;49.470;11.004;2023-05-16T18:00:42;16.20;49.60
6824;DHT22;58633;49.470;11.004;2023-05-16T18:03:08;16.20;49.60
6824;DHT22;58633;49.470;11.004;2023-05-16T18:05:34;16.10;49.50
6824;DHT22;58633;49.470;11.004;2023-05-16T18:08:00;16.20;49.80
6824;DHT22;58633;49.470;11.004;2023-05-16T18:10:25;16.20;50.00
6824;DHT22;58633;49.470;11.004;2023-05-16T18:12:51;16.10;49.90
6824;DHT22;58633;49.470;11.004;2023-05-16T18:17:43;16.20;50.20
6824;DHT22;58633;49.470;11.004;2023-05-16T18:20:09;16.10;50.20
6824;DHT22;58633;49.470;11.004;2023-05-16T18:22:36;16.50;50.60
6824;DHT22;58633;49.470;11.004;2023-05-16T18:25:10;16.10;50.30
6824;DHT22;58633;49.470;11.004;2023-05-16T18:30:03;16.00;50.30
6824;DHT22;58633;49.470;11.004;2023-05-16T18:32:31;15.80;50.80
6824;DHT22;58633;49.470;11.004;2023-05-16T18:34:57;15.80;50.90
6824;DHT22;58633;49.470;11.004;2023-05-16T18:39:48;15.90;50.50
6824;DHT22;58633;49.470;11.004;2023-05-16T18:42:14;15.70;50.80
6824;DHT22;58633;49.470;11.004;2023-05-16T18:44:42;15.70;50.40
6824;DHT22;58633;49.470;11.004;2023-05-16T18:49:34;15.80;50.40
6824;DHT22;58633;49.470;11.004;2023-05-16T18:52:08;15.80;50.50